sensor_id;sensor_type;location;lat;lon;timestamp;P1;durP1;ratioP1;P2;durP2;ratioP2
83769;SDS011;73763;48.936;9.300;2024-02-14T00:00:48;11.90;;;6.20;;
83769;SDS011;73763;48.936;9.300;2024-02-14T00:03:13;10.90;;;5.50;;
83769;SDS011;73763;48.936;9.300;2024-02-14T00:05:39;10.73;;;6.00;;
83769;SDS011;73763;48.936;9.300;2024-02-14T00:08:04;11.93;;;6.30;;
83769;SDS011;73763;48.936;9.300;2024-02-14T00:10:30;10.40;;;6.25;;
83769;SDS011;73763;48.936;9.300;2024-02-14T00:12:56;9.50;;;6.63;;
83769;SDS011;73763;48.936;9.300;2024-02-14T00:15:21;11.70;;;6.22;;
83769;SDS011;73763;48.936;9.300;2024-02-14T00:17:47;12.20;;;7.37;;
83769;SDS011;73763;48.936;9.300;2024-02-14T00:20:12;8.23;;;5.38;;
83769;SDS011;73763;48.936;9.300;2024-02-14T00:22:38;8.60;;;6.00;;
83769;SDS011;73763;48.936;9.300;2024-02-14T00:25:04;8.60;;;5.15;;
83769;SDS011;73763;48.936;9.300;2024-02-14T00:27:30;7.10;;;4.43;;
83769;SDS011;73763;48.936;9.300;2024-02-14T00:29:55;9.97;;;4.73;;
83769;SDS011;73763;48.936;9.300;2024-02-14T00:32:21;7.87;;;4.77;;
83769;SDS011;73763;48.936;9.300;2024-02-14T00:34:46;6.67;;;4.20;;
83769;SDS011;73763;48.936;9.300;2024-02-14T00:37:12;8.55;;;4.00;;
83769;SDS011;73763;48.936;9.300;2024-02-14T00:39:37;7.93;;;4.53;;
83769;SDS011;73763;48.936;9.300;2024-02-14T00:42:03;8.45;;;4.28;;
83769;SDS011;73763;48.936;9.300;2024-02-14T00:44:29;6.63;;;4.10;;
83769;SDS011;73763;48.936;9.300;2024-02-14T00:46:57;9.02;;;4.30;;
83769;SDS011;73763;48.936;9.300;2024-02-14T00:49:23;7.53;;;4.18;;
83769;SDS011;73763;48.936;9.300;2024-02-14T00:51:48;9.27;;;4.43;;
83769;SDS011;73763;48.936;9.300;2024-02-14T00:54:14;7.97;;;4.13;;
83769;SDS011;73763;48.936;9.300;2024-02-14T00:56:39;9.33;;;3.73;;
83769;SDS011;73763;48.936;9.300;2024-02-14T00:59:05;6.80;;;3.73;;
83769;SDS011;73763;48.936;9.300;2024-02-14T01:01:30;6.47;;;3.73;;
83769;SDS011;73763;48.936;9.300;2024-02-14T01:03:56;6.20;;;3.57;;
83769;SDS011;73763;48.936;9.300;2024-02-14T01:06:21;9.47;;;4.30;;
83769;SDS011;73763;48.936;9.300;2024-02-14T01:08:47;6.83;;;3.73;;
83769;SDS011;73763;48.936;9.300;2024-02-14T01:11:12;7.63;;;4.10;;
83769;SDS011;73763;48.936;9.300;2024-02-14T01:13:38;8.40;;;3.90;;
83769;SDS011;73763;48.936;9.300;2024-02-14T01:16:03;6.80;;;4.10;;
83769;SDS011;73763;48.936;9.300;2024-02-14T01:18:29;5.85;;;3.63;;
83769;SDS011;73763;48.936;9.300;2024-02-14T01:20:56;5.28;;;3.88;;
83769;SDS011;73763;48.936;9.300;2024-02-14T01:23:22;6.60;;;4.05;;
83769;SDS011;73763;48.936;9.300;2024-02-14T01:25:48;7.83;;;4.40;;
83769;SDS011;73763;48.936;9.300;2024-02-14T01:28:13;8.40;;;4.35;;
83769;SDS011;73763;48.936;9.300;2024-02-14T01:30:39;8.23;;;4.03;;
83769;SDS011;73763;48.936;9.300;2024-02-14T01:33:05;6.38;;;3.75;;
83769;SDS011;73763;48.936;9.300;2024-02-14T01:35:30;7.30;;;3.92;;
83769;SDS011;73763;48.936;9.300;2024-02-14T01:37:56;7.80;;;4.40;;
83769;SDS011;73763;48.936;9.300;2024-02-14T01:40:21;8.77;;;4.38;;
83769;SDS011;73763;48.936;9.300;2024-02-14T01:42:47;9.43;;;4.87;;
83769;SDS011;73763;48.936;9.300;2024-02-14T01:45:12;8.13;;;4.95;;
83769;SDS011;73763;48.936;9.300;2024-02-14T01:47:38;9.30;;;4.57;;
83769;SDS011;73763;48.936;9.300;2024-02-14T01:50:04;8.93;;;4.60;;
83769;SDS011;73763;48.936;9.300;2024-02-14T01:52:31;10.75;;;4.60;;
83769;SDS011;73763;48.936;9.300;2024-02-14T01:54:56;10.43;;;4.70;;
83769;SDS011;73763;48.936;9.300;2024-02-14T01:57:22;9.90;;;5.23;;
83769;SDS011;73763;48.936;9.300;2024-02-14T01:59:48;9.82;;;4.88;;
83769;SDS011;73763;48.936;9.300;2024-02-14T02:02:15;7.60;;;4.85;;
83769;SDS011;73763;48.936;9.300;2024-02-14T02:04:41;7.53;;;4.70;;
83769;SDS011;73763;48.936;9.300;2024-02-14T02:07:07;9.43;;;4.73;;
83769;SDS011;73763;48.936;9.300;2024-02-14T02:09:32;6.47;;;4.40;;
83769;SDS011;73763;48.936;9.300;2024-02-14T02:11:58;8.10;;;5.13;;
83769;SDS011;73763;48.936;9.300;2024-02-14T02:14:23;8.52;;;5.07;;
83769;SDS011;73763;48.936;9.300;2024-02-14T02:16:49;8.03;;;4.70;;
83769;SDS011;73763;48.936;9.300;2024-02-14T02:19:14;10.18;;;4.90;;
83769;SDS011;73763;48.936;9.300;2024-02-14T02:21:41;7.60;;;4.43;;
83769;SDS011;73763;48.936;9.300;2024-02-14T02:24:07;6.78;;;4.18;;
83769;SDS011;73763;48.936;9.300;2024-02-14T02:26:32;7.57;;;4.23;;
83769;SDS011;73763;48.936;9.300;2024-02-14T02:28:58;7.40;;;4.57;;
83769;SDS011;73763;48.936;9.300;2024-02-14T02:31:23;9.10;;;4.87;;
83769;SDS011;73763;48.936;9.300;2024-02-14T02:33:49;8.05;;;4.30;;
83769;SDS011;73763;48.936;9.300;2024-02-14T02:36:14;9.30;;;4.27;;
83769;SDS011;73763;48.936;9.300;2024-02-14T02:38:40;8.85;;;4.18;;
83769;SDS011;73763;48.936;9.300;2024-02-14T02:41:05;8.17;;;4.30;;
83769;SDS011;73763;48.936;9.300;2024-02-14T02:43:31;7.50;;;4.00;;
83769;SDS011;73763;48.936;9.300;2024-02-14T02:45:56;6.97;;;4.07;;
83769;SDS011;73763;48.936;9.300;2024-02-14T02:48:22;7.23;;;3.90;;
83769;SDS011;73763;48.936;9.300;2024-02-14T02:50:47;6.63;;;4.15;;
83769;SDS011;73763;48.936;9.300;2024-02-14T02:53:13;6.90;;;4.10;;
83769;SDS011;73763;48.936;9.300;2024-02-14T02:55:39;6.53;;;3.83;;
83769;SDS011;73763;48.936;9.300;2024-02-14T02:58:04;6.93;;;3.63;;
83769;SDS011;73763;48.936;9.300;2024-02-14T03:00:30;9.25;;;4.03;;
83769;SDS011;73763;48.936;9.300;2024-02-14T03:02:55;6.00;;;3.73;;
83769;SDS011;73763;48.936;9.300;2024-02-14T03:05:21;7.78;;;4.13;;
83769;SDS011;73763;48.936;9.300;2024-02-14T03:07:46;7.47;;;4.00;;
83769;SDS011;73763;48.936;9.300;2024-02-14T03:10:12;7.50;;;4.10;;
83769;SDS011;73763;48.936;9.300;2024-02-14T03:12:37;6.70;;;3.43;;
83769;SDS011;73763;48.936;9.300;2024-02-14T03:15:03;6.32;;;4.30;;
83769;SDS011;73763;48.936;9.300;2024-02-14T03:17:29;7.07;;;4.07;;
83769;SDS011;73763;48.936;9.300;2024-02-14T03:19:55;8.02;;;4.30;;
83769;SDS011;73763;48.936;9.300;2024-02-14T03:22:20;6.90;;;4.20;;
83769;SDS011;73763;48.936;9.300;2024-02-14T03:24:46;7.53;;;4.10;;
83769;SDS011;73763;48.936;9.300;2024-02-14T03:27:11;7.27;;;4.20;;
83769;SDS011;73763;48.936;9.300;2024-02-14T03:29:37;9.68;;;4.13;;
83769;SDS011;73763;48.936;9.300;2024-02-14T03:32:02;8.57;;;4.17;;
83769;SDS011;73763;48.936;9.300;2024-02-14T03:34:28;8.00;;;4.32;;
83769;SDS011;73763;48.936;9.300;2024-02-14T03:36:53;6.57;;;4.00;;
83769;SDS011;73763;48.936;9.300;2024-02-14T03:39:19;8.55;;;4.03;;
83769;SDS011;73763;48.936;9.300;2024-02-14T03:41:44;6.00;;;3.80;;
83769;SDS011;73763;48.936;9.300;2024-02-14T03:44:10;9.15;;;3.85;;
83769;SDS011;73763;48.936;9.300;2024-02-14T03:46:35;6.93;;;3.90;;
83769;SDS011;73763;48.936;9.300;2024-02-14T03:49:01;6.43;;;3.87;;
83769;SDS011;73763;48.936;9.300;2024-02-14T03:51:26;7.47;;;3.70;;
83769;SDS011;73763;48.936;9.300;2024-02-14T03:53:52;7.38;;;3.67;;
83769;SDS011;73763;48.936;9.300;2024-02-14T03:56:17;5.40;;;3.40;;
83769;SDS011;73763;48.936;9.300;2024-02-14T03:58:43;8.00;;;3.45;;
83769;SDS011;73763;48.936;9.300;2024-02-14T04:01:08;8.10;;;3.40;;
83769;SDS011;73763;48.936;9.300;2024-02-14T04:03:34;5.75;;;3.00;;
83769;SDS011;73763;48.936;9.300;2024-02-14T04:06:00;6.13;;;3.00;;
83769;SDS011;73763;48.936;9.300;2024-02-14T04:08:25;6.50;;;3.33;;
83769;SDS011;73763;48.936;9.300;2024-02-14T04:10:51;7.63;;;3.47;;
83769;SDS011;73763;48.936;9.300;2024-02-14T04:13:17;7.07;;;3.20;;
83769;SDS011;73763;48.936;9.300;2024-02-14T04:15:42;6.00;;;3.20;;
83769;SDS011;73763;48.936;9.300;2024-02-14T04:18:08;7.07;;;3.63;;
83769;SDS011;73763;48.936;9.300;2024-02-14T04:20:34;6.60;;;3.10;;
83769;SDS011;73763;48.936;9.300;2024-02-14T04:23:00;6.68;;;3.10;;
83769;SDS011;73763;48.936;9.300;2024-02-14T04:25:25;6.70;;;3.10;;
83769;SDS011;73763;48.936;9.300;2024-02-14T04:27:51;6.47;;;3.27;;
83769;SDS011;73763;48.936;9.300;2024-02-14T04:30:16;5.37;;;2.90;;
83769;SDS011;73763;48.936;9.300;2024-02-14T04:32:42;5.70;;;3.40;;
83769;SDS011;73763;48.936;9.300;2024-02-14T04:35:07;7.90;;;3.53;;
83769;SDS011;73763;48.936;9.300;2024-02-14T04:37:33;7.80;;;3.10;;
83769;SDS011;73763;48.936;9.300;2024-02-14T04:39:58;9.17;;;3.83;;
83769;SDS011;73763;48.936;9.300;2024-02-14T04:42:24;7.60;;;3.00;;
83769;SDS011;73763;48.936;9.300;2024-02-14T04:44:49;8.07;;;3.20;;
83769;SDS011;73763;48.936;9.300;2024-02-14T04:47:15;6.50;;;2.90;;
83769;SDS011;73763;48.936;9.300;2024-02-14T04:49:40;5.38;;;3.05;;
83769;SDS011;73763;48.936;9.300;2024-02-14T04:52:06;7.40;;;3.10;;
83769;SDS011;73763;48.936;9.300;2024-02-14T04:54:31;6.70;;;2.83;;
83769;SDS011;73763;48.936;9.300;2024-02-14T04:56:57;4.87;;;2.73;;
83769;SDS011;73763;48.936;9.300;2024-02-14T04:59:22;7.07;;;3.17;;
83769;SDS011;73763;48.936;9.300;2024-02-14T05:01:48;6.07;;;3.00;;
83769;SDS011;73763;48.936;9.300;2024-02-14T05:04:13;4.82;;;2.88;;
83769;SDS011;73763;48.936;9.300;2024-02-14T05:06:39;6.23;;;3.10;;
83769;SDS011;73763;48.936;9.300;2024-02-14T05:09:05;6.88;;;2.85;;
83769;SDS011;73763;48.936;9.300;2024-02-14T05:11:30;8.03;;;2.83;;
83769;SDS011;73763;48.936;9.300;2024-02-14T05:13:56;6.20;;;2.93;;
83769;SDS011;73763;48.936;9.300;2024-02-14T05:16:21;6.85;;;3.13;;
83769;SDS011;73763;48.936;9.300;2024-02-14T05:18:47;4.70;;;2.43;;
83769;SDS011;73763;48.936;9.300;2024-02-14T05:21:12;6.32;;;2.70;;
83769;SDS011;73763;48.936;9.300;2024-02-14T05:23:38;7.33;;;3.33;;
83769;SDS011;73763;48.936;9.300;2024-02-14T05:26:04;7.17;;;3.00;;
83769;SDS011;73763;48.936;9.300;2024-02-14T05:28:30;7.05;;;3.05;;
83769;SDS011;73763;48.936;9.300;2024-02-14T05:30:56;5.95;;;2.85;;
83769;SDS011;73763;48.936;9.300;2024-02-14T05:33:22;5.85;;;2.90;;
83769;SDS011;73763;48.936;9.300;2024-02-14T05:35:48;5.22;;;2.55;;
83769;SDS011;73763;48.936;9.300;2024-02-14T05:38:14;4.80;;;2.70;;
83769;SDS011;73763;48.936;9.300;2024-02-14T05:40:40;6.07;;;2.65;;
83769;SDS011;73763;48.936;9.300;2024-02-14T05:43:06;4.00;;;2.53;;
83769;SDS011;73763;48.936;9.300;2024-02-14T05:45:31;5.10;;;2.70;;
83769;SDS011;73763;48.936;9.300;2024-02-14T05:47:57;7.40;;;2.90;;
83769;SDS011;73763;48.936;9.300;2024-02-14T05:50:22;6.47;;;2.40;;
83769;SDS011;73763;48.936;9.300;2024-02-14T05:52:48;5.75;;;2.90;;
83769;SDS011;73763;48.936;9.300;2024-02-14T05:55:13;5.00;;;2.40;;
83769;SDS011;73763;48.936;9.300;2024-02-14T05:57:39;7.22;;;2.90;;
83769;SDS011;73763;48.936;9.300;2024-02-14T06:00:04;4.70;;;2.50;;
83769;SDS011;73763;48.936;9.300;2024-02-14T06:02:30;5.22;;;2.30;;
83769;SDS011;73763;48.936;9.300;2024-02-14T06:04:56;6.35;;;2.28;;
83769;SDS011;73763;48.936;9.300;2024-02-14T06:07:22;5.30;;;2.40;;
83769;SDS011;73763;48.936;9.300;2024-02-14T06:09:47;5.10;;;2.50;;
83769;SDS011;73763;48.936;9.300;2024-02-14T06:12:13;5.73;;;2.60;;
83769;SDS011;73763;48.936;9.300;2024-02-14T06:14:38;4.63;;;2.38;;
83769;SDS011;73763;48.936;9.300;2024-02-14T06:17:04;5.67;;;2.60;;
83769;SDS011;73763;48.936;9.300;2024-02-14T06:19:29;5.43;;;2.58;;
83769;SDS011;73763;48.936;9.300;2024-02-14T06:21:55;5.63;;;2.60;;
83769;SDS011;73763;48.936;9.300;2024-02-14T06:24:20;5.13;;;2.17;;
83769;SDS011;73763;48.936;9.300;2024-02-14T06:26:46;4.83;;;2.40;;
83769;SDS011;73763;48.936;9.300;2024-02-14T06:29:11;6.07;;;2.22;;
83769;SDS011;73763;48.936;9.300;2024-02-14T06:31:37;4.40;;;2.30;;
83769;SDS011;73763;48.936;9.300;2024-02-14T06:34:02;5.32;;;2.58;;
83769;SDS011;73763;48.936;9.300;2024-02-14T06:36:28;6.67;;;2.40;;
83769;SDS011;73763;48.936;9.300;2024-02-14T06:38:53;6.57;;;2.83;;
83769;SDS011;73763;48.936;9.300;2024-02-14T06:41:19;7.03;;;2.67;;
83769;SDS011;73763;48.936;9.300;2024-02-14T06:43:44;6.23;;;2.50;;
83769;SDS011;73763;48.936;9.300;2024-02-14T06:46:10;4.00;;;2.37;;
83769;SDS011;73763;48.936;9.300;2024-02-14T06:48:35;4.73;;;2.43;;
83769;SDS011;73763;48.936;9.300;2024-02-14T06:51:01;6.57;;;2.57;;
83769;SDS011;73763;48.936;9.300;2024-02-14T06:53:26;6.27;;;2.37;;
83769;SDS011;73763;48.936;9.300;2024-02-14T06:55:52;7.50;;;2.63;;
83769;SDS011;73763;48.936;9.300;2024-02-14T06:58:17;5.83;;;2.27;;
83769;SDS011;73763;48.936;9.300;2024-02-14T07:00:43;6.45;;;2.90;;
83769;SDS011;73763;48.936;9.300;2024-02-14T07:03:08;5.47;;;2.17;;
83769;SDS011;73763;48.936;9.300;2024-02-14T07:05:34;6.05;;;2.38;;
83769;SDS011;73763;48.936;9.300;2024-02-14T07:07:59;4.43;;;2.40;;
83769;SDS011;73763;48.936;9.300;2024-02-14T07:10:25;5.68;;;2.20;;
83769;SDS011;73763;48.936;9.300;2024-02-14T07:12:50;4.83;;;2.53;;
83769;SDS011;73763;48.936;9.300;2024-02-14T07:15:16;4.57;;;2.10;;
83769;SDS011;73763;48.936;9.300;2024-02-14T07:17:42;7.10;;;2.30;;
83769;SDS011;73763;48.936;9.300;2024-02-14T07:20:07;5.87;;;2.30;;
83769;SDS011;73763;48.936;9.300;2024-02-14T07:22:33;4.25;;;2.00;;
83769;SDS011;73763;48.936;9.300;2024-02-14T07:24:59;3.57;;;1.90;;
83769;SDS011;73763;48.936;9.300;2024-02-14T07:27:28;4.50;;;2.33;;
83769;SDS011;73763;48.936;9.300;2024-02-14T07:29:58;5.78;;;2.20;;
83769;SDS011;73763;48.936;9.300;2024-02-14T07:32:24;5.35;;;2.13;;
83769;SDS011;73763;48.936;9.300;2024-02-14T07:34:52;4.82;;;2.15;;
83769;SDS011;73763;48.936;9.300;2024-02-14T07:37:20;4.83;;;2.40;;
83769;SDS011;73763;48.936;9.300;2024-02-14T07:39:46;4.30;;;2.30;;
83769;SDS011;73763;48.936;9.300;2024-02-14T07:42:11;5.57;;;2.57;;
83769;SDS011;73763;48.936;9.300;2024-02-14T07:44:37;6.78;;;2.20;;
83769;SDS011;73763;48.936;9.300;2024-02-14T07:47:02;4.17;;;2.27;;
83769;SDS011;73763;48.936;9.300;2024-02-14T07:49:28;3.95;;;2.22;;
83769;SDS011;73763;48.936;9.300;2024-02-14T07:51:53;6.63;;;2.27;;
83769;SDS011;73763;48.936;9.300;2024-02-14T07:54:19;4.78;;;2.50;;
83769;SDS011;73763;48.936;9.300;2024-02-14T07:56:44;5.80;;;2.47;;
83769;SDS011;73763;48.936;9.300;2024-02-14T07:59:10;5.88;;;2.42;;
83769;SDS011;73763;48.936;9.300;2024-02-14T08:01:36;7.63;;;3.17;;
83769;SDS011;73763;48.936;9.300;2024-02-14T08:04:01;5.67;;;2.33;;
83769;SDS011;73763;48.936;9.300;2024-02-14T08:06:27;4.68;;;2.80;;
83769;SDS011;73763;48.936;9.300;2024-02-14T08:08:56;4.70;;;2.65;;
83769;SDS011;73763;48.936;9.300;2024-02-14T08:11:21;5.88;;;2.75;;
83769;SDS011;73763;48.936;9.300;2024-02-14T08:13:47;6.97;;;3.20;;
83769;SDS011;73763;48.936;9.300;2024-02-14T08:16:15;4.75;;;2.60;;
83769;SDS011;73763;48.936;9.300;2024-02-14T08:18:41;7.70;;;2.67;;
83769;SDS011;73763;48.936;9.300;2024-02-14T08:21:10;5.80;;;2.92;;
83769;SDS011;73763;48.936;9.300;2024-02-14T08:23:35;7.10;;;2.63;;
83769;SDS011;73763;48.936;9.300;2024-02-14T08:26:01;5.90;;;2.65;;
83769;SDS011;73763;48.936;9.300;2024-02-14T08:28:27;7.38;;;2.30;;
83769;SDS011;73763;48.936;9.300;2024-02-14T08:30:52;4.67;;;2.53;;
83769;SDS011;73763;48.936;9.300;2024-02-14T08:33:18;5.03;;;2.55;;
83769;SDS011;73763;48.936;9.300;2024-02-14T08:35:43;4.80;;;2.47;;
83769;SDS011;73763;48.936;9.300;2024-02-14T08:38:09;5.27;;;2.77;;
83769;SDS011;73763;48.936;9.300;2024-02-14T08:40:34;5.97;;;2.37;;
83769;SDS011;73763;48.936;9.300;2024-02-14T08:43:00;9.57;;;2.40;;
83769;SDS011;73763;48.936;9.300;2024-02-14T08:45:26;7.50;;;2.57;;
83769;SDS011;73763;48.936;9.300;2024-02-14T08:47:51;4.93;;;2.67;;
83769;SDS011;73763;48.936;9.300;2024-02-14T08:50:17;6.00;;;2.90;;
83769;SDS011;73763;48.936;9.300;2024-02-14T08:52:42;6.47;;;2.63;;
83769;SDS011;73763;48.936;9.300;2024-02-14T08:55:08;5.50;;;2.65;;
83769;SDS011;73763;48.936;9.300;2024-02-14T08:57:33;8.23;;;3.40;;
83769;SDS011;73763;48.936;9.300;2024-02-14T08:59:59;10.20;;;3.60;;
83769;SDS011;73763;48.936;9.300;2024-02-14T09:02:24;7.67;;;3.57;;
83769;SDS011;73763;48.936;9.300;2024-02-14T09:04:50;5.53;;;2.70;;
83769;SDS011;73763;48.936;9.300;2024-02-14T09:07:15;7.40;;;2.80;;
83769;SDS011;73763;48.936;9.300;2024-02-14T09:09:41;7.57;;;2.83;;
83769;SDS011;73763;48.936;9.300;2024-02-14T09:12:06;5.75;;;3.10;;
83769;SDS011;73763;48.936;9.300;2024-02-14T09:14:32;6.50;;;3.00;;
83769;SDS011;73763;48.936;9.300;2024-02-14T09:16:57;5.17;;;2.67;;
83769;SDS011;73763;48.936;9.300;2024-02-14T09:19:23;6.37;;;2.70;;
83769;SDS011;73763;48.936;9.300;2024-02-14T09:21:49;7.03;;;2.95;;
83769;SDS011;73763;48.936;9.300;2024-02-14T09:24:14;7.73;;;3.50;;
83769;SDS011;73763;48.936;9.300;2024-02-14T09:26:40;4.28;;;2.88;;
83769;SDS011;73763;48.936;9.300;2024-02-14T09:29:05;7.00;;;2.97;;
83769;SDS011;73763;48.936;9.300;2024-02-14T09:31:31;7.30;;;3.00;;
83769;SDS011;73763;48.936;9.300;2024-02-14T09:33:56;6.63;;;2.90;;
83769;SDS011;73763;48.936;9.300;2024-02-14T09:36:22;8.47;;;2.60;;
83769;SDS011;73763;48.936;9.300;2024-02-14T09:38:48;6.65;;;2.70;;
83769;SDS011;73763;48.936;9.300;2024-02-14T09:41:29;8.47;;;2.93;;
83769;SDS011;73763;48.936;9.300;2024-02-14T09:43:58;7.70;;;2.97;;
83769;SDS011;73763;48.936;9.300;2024-02-14T09:46:24;5.10;;;2.53;;
83769;SDS011;73763;48.936;9.300;2024-02-14T09:48:49;5.10;;;2.27;;
83769;SDS011;73763;48.936;9.300;2024-02-14T09:51:17;3.80;;;2.20;;
83769;SDS011;73763;48.936;9.300;2024-02-14T09:53:42;7.28;;;2.03;;
83769;SDS011;73763;48.936;9.300;2024-02-14T09:56:09;5.35;;;2.20;;
83769;SDS011;73763;48.936;9.300;2024-02-14T09:58:35;5.23;;;2.33;;
83769;SDS011;73763;48.936;9.300;2024-02-14T10:01:01;8.15;;;4.43;;
83769;SDS011;73763;48.936;9.300;2024-02-14T10:03:27;7.85;;;2.13;;
83769;SDS011;73763;48.936;9.300;2024-02-14T10:05:52;6.67;;;3.57;;
83769;SDS011;73763;48.936;9.300;2024-02-14T10:08:18;4.65;;;2.45;;
83769;SDS011;73763;48.936;9.300;2024-02-14T10:10:44;7.93;;;2.63;;
83769;SDS011;73763;48.936;9.300;2024-02-14T10:13:10;8.63;;;2.22;;
83769;SDS011;73763;48.936;9.300;2024-02-14T10:15:35;5.37;;;2.27;;
83769;SDS011;73763;48.936;9.300;2024-02-14T10:18:04;5.65;;;2.00;;
83769;SDS011;73763;48.936;9.300;2024-02-14T10:20:29;7.40;;;2.17;;
83769;SDS011;73763;48.936;9.300;2024-02-14T10:23:02;7.00;;;2.50;;
83769;SDS011;73763;48.936;9.300;2024-02-14T10:25:28;4.03;;;1.93;;
83769;SDS011;73763;48.936;9.300;2024-02-14T10:27:54;6.20;;;2.33;;
83769;SDS011;73763;48.936;9.300;2024-02-14T10:30:20;3.25;;;1.90;;
83769;SDS011;73763;48.936;9.300;2024-02-14T10:32:45;7.30;;;2.40;;
83769;SDS011;73763;48.936;9.300;2024-02-14T10:35:11;5.88;;;2.08;;
83769;SDS011;73763;48.936;9.300;2024-02-14T10:37:37;4.28;;;2.40;;
83769;SDS011;73763;48.936;9.300;2024-02-14T10:40:03;5.83;;;2.30;;
83769;SDS011;73763;48.936;9.300;2024-02-14T10:42:33;3.65;;;2.15;;
83769;SDS011;73763;48.936;9.300;2024-02-14T10:44:59;4.90;;;2.25;;
83769;SDS011;73763;48.936;9.300;2024-02-14T10:47:27;3.92;;;2.25;;
83769;SDS011;73763;48.936;9.300;2024-02-14T10:49:57;4.27;;;2.20;;
83769;SDS011;73763;48.936;9.300;2024-02-14T10:52:28;6.78;;;2.20;;
83769;SDS011;73763;48.936;9.300;2024-02-14T10:54:56;4.38;;;1.95;;
83769;SDS011;73763;48.936;9.300;2024-02-14T10:57:24;5.60;;;2.10;;
83769;SDS011;73763;48.936;9.300;2024-02-14T10:59:50;6.35;;;2.35;;
83769;SDS011;73763;48.936;9.300;2024-02-14T11:02:17;3.03;;;1.77;;
83769;SDS011;73763;48.936;9.300;2024-02-14T11:04:43;5.07;;;1.83;;
83769;SDS011;73763;48.936;9.300;2024-02-14T11:07:10;5.63;;;1.90;;
83769;SDS011;73763;48.936;9.300;2024-02-14T11:09:35;3.92;;;1.88;;
83769;SDS011;73763;48.936;9.300;2024-02-14T11:12:02;5.13;;;2.10;;
83769;SDS011;73763;48.936;9.300;2024-02-14T11:14:34;5.35;;;2.00;;
83769;SDS011;73763;48.936;9.300;2024-02-14T11:17:00;8.02;;;2.28;;
83769;SDS011;73763;48.936;9.300;2024-02-14T11:19:33;9.00;;;2.60;;
83769;SDS011;73763;48.936;9.300;2024-02-14T11:21:59;3.95;;;1.83;;
83769;SDS011;73763;48.936;9.300;2024-02-14T11:24:36;5.32;;;1.50;;
83769;SDS011;73763;48.936;9.300;2024-02-14T11:27:02;3.40;;;1.35;;
83769;SDS011;73763;48.936;9.300;2024-02-14T11:29:30;3.33;;;1.30;;
83769;SDS011;73763;48.936;9.300;2024-02-14T11:31:59;3.45;;;1.00;;
83769;SDS011;73763;48.936;9.300;2024-02-14T11:34:26;1.85;;;1.08;;
83769;SDS011;73763;48.936;9.300;2024-02-14T11:36:52;3.53;;;1.38;;
83769;SDS011;73763;48.936;9.300;2024-02-14T11:39:17;2.67;;;1.37;;
83769;SDS011;73763;48.936;9.300;2024-02-14T11:41:43;4.80;;;1.48;;
83769;SDS011;73763;48.936;9.300;2024-02-14T11:44:08;2.87;;;1.27;;
83769;SDS011;73763;48.936;9.300;2024-02-14T11:46:35;2.80;;;1.50;;
83769;SDS011;73763;48.936;9.300;2024-02-14T11:49:03;3.13;;;1.35;;
83769;SDS011;73763;48.936;9.300;2024-02-14T11:51:30;3.53;;;1.50;;
83769;SDS011;73763;48.936;9.300;2024-02-14T11:53:57;2.67;;;1.45;;
83769;SDS011;73763;48.936;9.300;2024-02-14T11:56:23;3.22;;;1.42;;
83769;SDS011;73763;48.936;9.300;2024-02-14T11:58:49;4.10;;;1.27;;
83769;SDS011;73763;48.936;9.300;2024-02-14T12:01:16;3.90;;;1.60;;
83769;SDS011;73763;48.936;9.300;2024-02-14T12:03:43;4.30;;;1.67;;
83769;SDS011;73763;48.936;9.300;2024-02-14T12:06:09;2.13;;;1.42;;
83769;SDS011;73763;48.936;9.300;2024-02-14T12:08:35;2.88;;;1.55;;
83769;SDS011;73763;48.936;9.300;2024-02-14T12:11:02;4.30;;;1.52;;
83769;SDS011;73763;48.936;9.300;2024-02-14T12:13:28;3.40;;;1.55;;
83769;SDS011;73763;48.936;9.300;2024-02-14T12:15:56;2.85;;;1.42;;
83769;SDS011;73763;48.936;9.300;2024-02-14T12:18:21;2.53;;;1.50;;
83769;SDS011;73763;48.936;9.300;2024-02-14T12:20:47;3.33;;;1.50;;
83769;SDS011;73763;48.936;9.300;2024-02-14T12:23:16;4.70;;;1.83;;
83769;SDS011;73763;48.936;9.300;2024-02-14T12:25:42;4.05;;;1.60;;
83769;SDS011;73763;48.936;9.300;2024-02-14T12:28:08;2.90;;;1.37;;
83769;SDS011;73763;48.936;9.300;2024-02-14T12:33:15;2.03;;;1.30;;
83769;SDS011;73763;48.936;9.300;2024-02-14T12:35:45;3.45;;;1.90;;
83769;SDS011;73763;48.936;9.300;2024-02-14T12:38:12;6.65;;;1.73;;
83769;SDS011;73763;48.936;9.300;2024-02-14T12:40:39;4.25;;;1.77;;
83769;SDS011;73763;48.936;9.300;2024-02-14T12:43:05;5.00;;;2.30;;
83769;SDS011;73763;48.936;9.300;2024-02-14T12:45:31;3.60;;;2.40;;
83769;SDS011;73763;48.936;9.300;2024-02-14T12:47:56;3.22;;;1.80;;
83769;SDS011;73763;48.936;9.300;2024-02-14T12:50:22;2.17;;;1.53;;
83769;SDS011;73763;48.936;9.300;2024-02-14T12:52:48;3.17;;;1.25;;
83769;SDS011;73763;48.936;9.300;2024-02-14T12:55:13;3.05;;;1.20;;
83769;SDS011;73763;48.936;9.300;2024-02-14T12:57:39;4.13;;;1.30;;
83769;SDS011;73763;48.936;9.300;2024-02-14T13:00:05;3.47;;;1.00;;
83769;SDS011;73763;48.936;9.300;2024-02-14T13:02:32;3.60;;;1.40;;
83769;SDS011;73763;48.936;9.300;2024-02-14T13:04:57;4.45;;;1.40;;
83769;SDS011;73763;48.936;9.300;2024-02-14T13:07:23;3.60;;;1.10;;
83769;SDS011;73763;48.936;9.300;2024-02-14T13:09:48;2.30;;;1.20;;
83769;SDS011;73763;48.936;9.300;2024-02-14T13:12:14;2.60;;;1.20;;
83769;SDS011;73763;48.936;9.300;2024-02-14T13:14:39;4.40;;;1.20;;
83769;SDS011;73763;48.936;9.300;2024-02-14T13:17:05;3.38;;;1.30;;
83769;SDS011;73763;48.936;9.300;2024-02-14T13:19:30;3.07;;;1.30;;
83769;SDS011;73763;48.936;9.300;2024-02-14T13:21:56;3.70;;;1.23;;
83769;SDS011;73763;48.936;9.300;2024-02-14T13:24:21;2.23;;;1.17;;
83769;SDS011;73763;48.936;9.300;2024-02-14T13:26:47;3.22;;;2.20;;
83769;SDS011;73763;48.936;9.300;2024-02-14T13:29:12;4.07;;;2.13;;
83769;SDS011;73763;48.936;9.300;2024-02-14T13:31:38;3.33;;;1.33;;
83769;SDS011;73763;48.936;9.300;2024-02-14T13:34:03;4.97;;;4.30;;
83769;SDS011;73763;48.936;9.300;2024-02-14T13:36:29;4.60;;;3.17;;
83769;SDS011;73763;48.936;9.300;2024-02-14T13:38:55;3.07;;;1.67;;
83769;SDS011;73763;48.936;9.300;2024-02-14T13:41:20;4.70;;;1.98;;
83769;SDS011;73763;48.936;9.300;2024-02-14T13:43:46;5.85;;;3.10;;
83769;SDS011;73763;48.936;9.300;2024-02-14T13:46:11;2.90;;;2.03;;
83769;SDS011;73763;48.936;9.300;2024-02-14T13:48:37;2.73;;;1.30;;
83769;SDS011;73763;48.936;9.300;2024-02-14T13:51:02;2.25;;;1.30;;
83769;SDS011;73763;48.936;9.300;2024-02-14T13:53:28;2.73;;;1.40;;
83769;SDS011;73763;48.936;9.300;2024-02-14T13:55:53;2.90;;;1.10;;
83769;SDS011;73763;48.936;9.300;2024-02-14T13:58:19;3.80;;;1.40;;
83769;SDS011;73763;48.936;9.300;2024-02-14T14:00:44;2.72;;;1.00;;
83769;SDS011;73763;48.936;9.300;2024-02-14T14:03:10;5.27;;;2.17;;
83769;SDS011;73763;48.936;9.300;2024-02-14T14:05:36;2.57;;;1.23;;
83769;SDS011;73763;48.936;9.300;2024-02-14T14:08:01;1.70;;;1.05;;
83769;SDS011;73763;48.936;9.300;2024-02-14T14:10:27;4.50;;;1.67;;
83769;SDS011;73763;48.936;9.300;2024-02-14T14:12:52;3.70;;;1.30;;
83769;SDS011;73763;48.936;9.300;2024-02-14T14:15:19;3.05;;;1.50;;
83769;SDS011;73763;48.936;9.300;2024-02-14T14:17:45;3.10;;;1.17;;
83769;SDS011;73763;48.936;9.300;2024-02-14T14:20:10;2.83;;;1.30;;
83769;SDS011;73763;48.936;9.300;2024-02-14T14:22:36;2.80;;;1.40;;
83769;SDS011;73763;48.936;9.300;2024-02-14T14:25:01;3.90;;;1.20;;
83769;SDS011;73763;48.936;9.300;2024-02-14T14:27:27;4.18;;;1.20;;
83769;SDS011;73763;48.936;9.300;2024-02-14T14:29:53;2.65;;;1.40;;
83769;SDS011;73763;48.936;9.300;2024-02-14T14:32:18;2.10;;;1.30;;
83769;SDS011;73763;48.936;9.300;2024-02-14T14:34:44;5.33;;;1.30;;
83769;SDS011;73763;48.936;9.300;2024-02-14T14:37:09;1.48;;;1.10;;
83769;SDS011;73763;48.936;9.300;2024-02-14T14:39:35;2.90;;;1.20;;
83769;SDS011;73763;48.936;9.300;2024-02-14T14:42:00;3.20;;;1.10;;